Time,TemperatureF,DewpointF,PressureIn,WindDirection,WindDirectionDegrees,WindSpeedMPH,WindSpeedGustMPH,Humidity,HourlyPrecipIn,Conditions,Clouds,dailyrainin,SoftwareType,DateUTC
2013-09-09 00:06:00,71.4,68.0,29.91,SE,133,0.0,-999.0,89,-99.99,,,0.04,weatherlink.com 1.10,2013-09-09 05:06:00,
2013-09-09 00:21:00,71.1,68.0,29.92,SE,133,0.0,-999.0,90,-99.99,,,0.04,weatherlink.com 1.10,2013-09-09 05:21:00,
2013-09-09 00:36:00,70.8,68.0,29.92,SE,133,0.0,-999.0,90,-99.99,,,0.04,weatherlink.com 1.10,2013-09-09 05:36:00,
2013-09-09 00:51:00,70.5,68.0,29.91,SE,133,0.0,-999.0,91,-99.99,,,0.00,weatherlink.com 1.10,2013-09-09 05:51:00,
2013-09-09 01:06:00,70.3,68.0,29.91,SE,133,0.0,-999.0,91,-99.99,,,0.00,weatherlink.com 1.10,2013-09-09 06:06:00,
2013-09-09 01:21:00,69.9,67.0,29.91,SE,133,0.0,-999.0,91,-99.99,,,0.00,weatherlink.com 1.10,2013-09-09 06:21:00,
2013-09-09 01:36:00,69.5,67.0,29.91,ESE,118,0.0,-999.0,91,-99.99,,,0.00,weatherlink.com 1.10,2013-09-09 06:36:00,
2013-09-09 01:51:00,69.4,67.0,29.91,ESE,118,0.0,-999.0,92,-99.99,,,0.00,weatherlink.com 1.10,2013-09-09 06:51:00,
2013-09-09 02:06:00,69.3,67.0,29.90,ESE,118,0.0,-999.0,92,-99.99,,,0.00,weatherlink.com 1.10,2013-09-09 07:06:00,
2013-09-09 02:21:00,68.9,67.0,29.90,ESE,117,0.0,-999.0,92,-99.99,,,0.00,weatherlink.com 1.10,2013-09-09 07:21:00,
2013-09-09 02:36:00,68.6,66.0,29.90,ESE,117,0.0,-999.0,92,-99.99,,,0.00,weatherlink.com 1.10,2013-09-09 07:36:00,
2013-09-09 02:51:00,68.4,66.0,29.90,ESE,118,0.0,-999.0,93,-99.99,,,0.00,weatherlink.com 1.10,2013-09-09 07:51:00,
2013-09-09 03:06:00,68.2,66.0,29.90,ESE,119,0.0,-999.0,93,-99.99,,,0.00,weatherlink.com 1.10,2013-09-09 08:06:00,
2013-09-09 03:21:00,68.0,66.0,29.90,ESE,119,0.0,-999.0,93,-99.99,,,0.00,weatherlink.com 1.10,2013-09-09 08:21:00,
2013-09-09 03:36:00,67.9,66.0,29.90,ESE,121,0.0,-999.0,93,-99.99,,,0.00,weatherlink.com 1.10,2013-09-09 08:36:00,
2013-09-09 03:51:00,67.9,66.0,29.90,ESE,123,0.0,-999.0,94,-99.99,,,0.00,weatherlink.com 1.10,2013-09-09 08:51:00,
2013-09-09 04:06:00,68.1,66.0,29.90,ESE,123,0.0,-999.0,94,-99.99,,,0.00,weatherlink.com 1.10,2013-09-09 09:06:00,
2013-09-09 04:21:00,68.4,67.0,29.89,SE,130,0.0,-999.0,95,-99.99,,,0.00,weatherlink.com 1.10,2013-09-09 09:21:00,
2013-09-09 04:36:00,68.7,67.0,29.89,SE,130,0.0,-999.0,95,-99.99,,,0.00,weatherlink.com 1.10,2013-09-09 09:36:00,
2013-09-09 04:51:00,68.8,67.0,29.89,SE,131,0.0,-999.0,95,-99.99,,,0.00,weatherlink.com 1.10,2013-09-09 09:51:00,
2013-09-09 05:06:00,68.5,67.0,29.89,SE,131,0.0,-999.0,95,-99.99,,,0.00,weatherlink.com 1.10,2013-09-09 10:06:00,
2013-09-09 05:21:00,68.5,67.0,29.89,SE,131,0.0,-999.0,95,-99.99,,,0.00,weatherlink.com 1.10,2013-09-09 10:21:00,
2013-09-09 05:36:00,68.8,67.0,29.89,SE,133,0.0,-999.0,95,-99.99,,,0.00,weatherlink.com 1.10,2013-09-09 10:36:00,
2013-09-09 05:51:00,68.9,68.0,29.89,SE,139,0.0,-999.0,96,-99.99,,,0.00,weatherlink.com 1.10,2013-09-09 10:51:00,
2013-09-09 06:07:00,69.1,68.0,29.89,SE,138,0.0,-999.0,96,-99.99,,,0.00,weatherlink.com 1.10,2013-09-09 11:07:00,
2013-09-09 06:22:00,69.2,68.0,29.89,SSE,150,0.0,-999.0,96,-99.99,,,0.00,weatherlink.com 1.10,2013-09-09 11:22:00,
2013-09-09 06:37:00,69.4,68.0,29.89,SSE,160,0.0,-999.0,96,-99.99,,,0.00,weatherlink.com 1.10,2013-09-09 11:37:00,
2013-09-09 06:52:00,69.5,68.0,29.89,SSE,157,0.0,-999.0,96,-99.99,,,0.00,weatherlink.com 1.10,2013-09-09 11:52:00,
2013-09-09 07:07:00,69.5,68.0,29.90,SSE,153,0.0,-999.0,96,-99.99,,,0.00,weatherlink.com 1.10,2013-09-09 12:07:00,
2013-09-09 07:22:00,69.6,69.0,29.89,SSE,149,0.0,-999.0,96,-99.99,,,0.00,weatherlink.com 1.10,2013-09-09 12:22:00,
2013-09-09 07:37:00,69.7,69.0,29.89,SSE,153,0.0,-999.0,97,-99.99,,,0.00,weatherlink.com 1.10,2013-09-09 12:37:00,
2013-09-09 07:52:00,70.1,69.0,29.89,SE,145,0.0,-999.0,97,-99.99,,,0.00,weatherlink.com 1.10,2013-09-09 12:52:00,
2013-09-09 08:07:00,70.6,70.0,29.89,SE,146,0.0,-999.0,97,-99.99,,,0.00,weatherlink.com 1.10,2013-09-09 13:07:00,
2013-09-09 08:22:00,71.3,70.0,29.89,South,176,0.0,-999.0,97,-99.99,,,0.00,weatherlink.com 1.10,2013-09-09 13:22:00,
2013-09-09 08:37:00,72.3,71.0,29.90,SSE,155,3.0,-999.0,96,-99.99,,,0.00,weatherlink.com 1.10,2013-09-09 13:37:00,
2013-09-09 08:52:00,73.6,72.0,29.89,South,181,0.0,-999.0,94,-99.99,,,0.00,weatherlink.com 1.10,2013-09-09 13:52:00,
2013-09-09 09:07:00,74.8,72.0,29.89,SE,143,0.0,-999.0,91,-99.99,,,0.00,weatherlink.com 1.10,2013-09-09 14:07:00,
2013-09-09 09:22:00,75.7,72.0,29.89,SE,146,3.0,-999.0,88,-99.99,,,0.00,weatherlink.com 1.10,2013-09-09 14:22:00,
2013-09-09 09:37:00,77.3,73.0,29.89,SSE,166,2.0,-999.0,86,-99.99,,,0.00,weatherlink.com 1.10,2013-09-09 14:37:00,
2013-09-09 09:52:00,79.0,73.0,29.89,SSW,196,4.0,-999.0,82,-99.99,,,0.00,weatherlink.com 1.10,2013-09-09 14:52:00,
2013-09-09 10:07:00,80.3,73.0,29.89,SSW,209,7.0,-999.0,79,-99.99,,,0.00,weatherlink.com 1.10,2013-09-09 15:07:00,
2013-09-09 10:22:00,80.9,73.0,29.89,SSW,208,7.0,-999.0,78,-99.99,,,0.00,weatherlink.com 1.10,2013-09-09 15:22:00,
2013-09-09 10:37:00,82.1,74.0,29.88,SE,146,4.0,-999.0,76,-99.99,,,0.00,weatherlink.com 1.10,2013-09-09 15:37:00,
2013-09-09 10:52:00,83.2,74.0,29.88,South,187,4.0,-999.0,74,-99.99,,,0.00,weatherlink.com 1.10,2013-09-09 15:52:00,
2013-09-09 11:07:00,83.8,74.0,29.88,SW,217,2.0,-999.0,73,-99.99,,,0.00,weatherlink.com 1.10,2013-09-09 16:07:00,
2013-09-09 11:22:00,83.9,74.0,29.88,SW,234,4.0,-999.0,73,-99.99,,,0.00,weatherlink.com 1.10,2013-09-09 16:22:00,
2013-09-09 11:37:00,85.3,75.0,29.87,SE,131,0.0,-999.0,70,-99.99,,,0.00,weatherlink.com 1.10,2013-09-09 16:37:00,
2013-09-09 11:52:00,86.4,75.0,29.87,South,170,7.0,-999.0,69,-99.99,,,0.00,weatherlink.com 1.10,2013-09-09 16:52:00,
2013-09-09 12:07:00,86.3,75.0,29.87,WNW,295,4.0,-999.0,69,-99.99,,,0.00,weatherlink.com 1.10,2013-09-09 17:07:00,
2013-09-09 12:22:00,87.5,75.0,29.87,SSW,205,4.0,-999.0,67,-99.99,,,0.00,weatherlink.com 1.10,2013-09-09 17:22:00,
2013-09-09 12:37:00,88.2,75.0,29.86,SSW,210,10.0,-999.0,66,-99.99,,,0.00,weatherlink.com 1.10,2013-09-09 17:37:00,
2013-09-09 12:52:00,88.2,75.0,29.86,SSW,196,1.0,-999.0,65,-99.99,,,0.00,weatherlink.com 1.10,2013-09-09 17:52:00,
2013-09-09 13:08:00,89.2,75.0,29.85,South,191,13.0,-999.0,63,-99.99,,,0.00,weatherlink.com 1.10,2013-09-09 18:08:00,
2013-09-09 13:23:00,89.7,75.0,29.85,SE,137,0.0,-999.0,62,-99.99,,,0.00,weatherlink.com 1.10,2013-09-09 18:23:00,
2013-09-09 13:38:00,90.4,75.0,29.84,WSW,240,0.0,-999.0,61,-99.99,,,0.00,weatherlink.com 1.10,2013-09-09 18:38:00,
2013-09-09 13:53:00,90.9,75.0,29.83,SW,222,9.0,-999.0,60,-99.99,,,0.00,weatherlink.com 1.10,2013-09-09 18:53:00,
2013-09-09 14:08:00,92.0,75.0,29.83,South,188,13.0,-999.0,57,-99.99,,,0.00,weatherlink.com 1.10,2013-09-09 19:08:00,
2013-09-09 14:23:00,92.6,75.0,29.83,SW,217,7.0,-999.0,57,-99.99,,,0.00,weatherlink.com 1.10,2013-09-09 19:23:00,
2013-09-09 14:38:00,92.6,75.0,29.83,SE,142,3.0,-999.0,57,-99.99,,,0.00,weatherlink.com 1.10,2013-09-09 19:38:00,
2013-09-09 14:53:00,93.2,75.0,29.83,SW,219,4.0,-999.0,55,-99.99,,,0.00,weatherlink.com 1.10,2013-09-09 19:53:00,
2013-09-09 15:08:00,93.7,75.0,29.82,South,175,10.0,-999.0,54,-99.99,,,0.00,weatherlink.com 1.10,2013-09-09 20:08:00,
2013-09-09 15:23:00,94.0,75.0,29.82,SSE,147,5.0,-999.0,54,-99.99,,,0.00,weatherlink.com 1.10,2013-09-09 20:23:00,
2013-09-09 15:38:00,93.7,75.0,29.81,South,184,2.0,-999.0,54,-99.99,,,0.00,weatherlink.com 1.10,2013-09-09 20:38:00,
2013-09-09 15:53:00,94.2,75.0,29.82,SSW,211,7.0,-999.0,53,-99.99,,,0.00,weatherlink.com 1.10,2013-09-09 20:53:00,
2013-09-09 16:08:00,94.4,75.0,29.81,SSW,211,3.0,-999.0,53,-99.99,,,0.00,weatherlink.com 1.10,2013-09-09 21:08:00,
2013-09-09 16:23:00,94.3,74.0,29.81,SSE,159,7.0,-999.0,52,-99.99,,,0.00,weatherlink.com 1.10,2013-09-09 21:23:00,
2013-09-09 16:38:00,94.1,74.0,29.81,SW,214,10.0,-999.0,53,-99.99,,,0.00,weatherlink.com 1.10,2013-09-09 21:38:00,
2013-09-09 16:53:00,94.0,74.0,29.82,South,185,7.0,-999.0,53,-99.99,,,0.00,weatherlink.com 1.10,2013-09-09 21:53:00,
2013-09-09 17:08:00,94.2,73.0,29.82,SW,231,0.0,-999.0,51,-99.99,,,0.00,weatherlink.com 1.10,2013-09-09 22:08:00,
2013-09-09 17:23:00,93.7,73.0,29.82,SSW,213,5.0,-999.0,51,-99.99,,,0.00,weatherlink.com 1.10,2013-09-09 22:23:00,
2013-09-09 17:38:00,93.2,72.0,29.82,SW,215,8.0,-999.0,51,-99.99,,,0.00,weatherlink.com 1.10,2013-09-09 22:38:00,
2013-09-09 17:53:00,92.9,72.0,29.82,SSW,196,2.0,-999.0,51,-99.99,,,0.00,weatherlink.com 1.10,2013-09-09 22:53:00,
2013-09-09 18:08:00,92.5,71.0,29.82,SSW,209,0.0,-999.0,50,-99.99,,,0.00,weatherlink.com 1.10,2013-09-09 23:08:00,
2013-09-09 18:23:00,92.0,71.0,29.83,SSW,205,3.0,-999.0,51,-99.99,,,0.00,weatherlink.com 1.10,2013-09-09 23:23:00,
2013-09-09 18:38:00,91.1,71.0,29.83,SSW,202,3.0,-999.0,52,-99.99,,,0.00,weatherlink.com 1.10,2013-09-09 23:38:00,
2013-09-09 18:53:00,90.0,71.0,29.83,SW,230,0.0,-999.0,54,-99.99,,,0.00,weatherlink.com 1.10,2013-09-09 23:53:00,
2013-09-09 19:09:00,88.8,71.0,29.84,WSW,237,0.0,-999.0,55,-99.99,,,0.00,weatherlink.com 1.10,2013-09-10 00:09:00,
2013-09-09 19:24:00,87.7,71.0,29.85,SW,221,0.0,-999.0,57,-99.99,,,0.00,weatherlink.com 1.10,2013-09-10 00:24:00,
2013-09-09 19:39:00,86.6,71.0,29.85,SW,219,0.0,-999.0,59,-99.99,,,0.00,weatherlink.com 1.10,2013-09-10 00:39:00,
2013-09-09 19:54:00,85.5,70.0,29.85,SW,219,1.0,-999.0,61,-99.99,,,0.00,weatherlink.com 1.10,2013-09-10 00:54:00,
2013-09-09 20:09:00,84.7,71.0,29.86,SW,216,0.0,-999.0,63,-99.99,,,0.00,weatherlink.com 1.10,2013-09-10 01:09:00,
2013-09-09 20:24:00,83.8,71.0,29.86,SSW,200,0.0,-999.0,65,-99.99,,,0.00,weatherlink.com 1.10,2013-09-10 01:24:00,
2013-09-09 20:39:00,83.2,71.0,29.87,SSW,198,0.0,-999.0,67,-99.99,,,0.00,weatherlink.com 1.10,2013-09-10 01:39:00,
2013-09-09 20:54:00,82.1,71.0,29.87,SSW,198,0.0,-999.0,70,-99.99,,,0.00,weatherlink.com 1.10,2013-09-10 01:54:00,
2013-09-09 21:09:00,81.1,72.0,29.87,SSW,200,0.0,-999.0,73,-99.99,,,0.00,weatherlink.com 1.10,2013-09-10 02:09:00,
2013-09-09 21:24:00,80.4,72.0,29.87,SSW,204,0.0,-999.0,75,-99.99,,,0.00,weatherlink.com 1.10,2013-09-10 02:24:00,
2013-09-09 21:39:00,79.8,72.0,29.88,SSW,203,0.0,-999.0,77,-99.99,,,0.00,weatherlink.com 1.10,2013-09-10 02:39:00,
2013-09-09 21:54:00,79.3,72.0,29.88,SSW,203,0.0,-999.0,79,-99.99,,,0.00,weatherlink.com 1.10,2013-09-10 02:54:00,
2013-09-09 22:09:00,79.1,72.0,29.89,South,178,0.0,-999.0,80,-99.99,,,0.00,weatherlink.com 1.10,2013-09-10 03:09:00,
2013-09-09 22:24:00,78.9,72.0,29.89,South,179,0.0,-999.0,80,-99.99,,,0.00,weatherlink.com 1.10,2013-09-10 03:24:00,
2013-09-09 22:39:00,78.7,72.0,29.89,South,180,0.0,-999.0,81,-99.99,,,0.00,weatherlink.com 1.10,2013-09-10 03:39:00,
2013-09-09 22:54:00,78.2,72.0,29.89,SSW,198,0.0,-999.0,82,-99.99,,,0.00,weatherlink.com 1.10,2013-09-10 03:54:00,
2013-09-09 23:09:00,77.9,72.0,29.89,SSW,201,0.0,-999.0,82,-99.99,,,0.00,weatherlink.com 1.10,2013-09-10 04:09:00,
2013-09-09 23:24:00,77.5,72.0,29.89,South,188,0.0,-999.0,82,-99.99,,,0.00,weatherlink.com 1.10,2013-09-10 04:24:00,
2013-09-09 23:39:00,77.8,72.0,29.89,SSW,192,0.0,-999.0,81,-99.99,,,0.00,weatherlink.com 1.10,2013-09-10 04:39:00,
2013-09-09 23:54:00,78.1,72.0,29.89,SSW,202,0.0,-999.0,80,-99.99,,,0.00,weatherlink.com 1.10,2013-09-10 04:54:00,